Time;durP1;ratioP1;P1;durP2;ratioP2;P2;SDS_P1;SDS_P2;PMS_P1;PMS_P2;Temp;Humidity;BMP_temperature;BMP_pressure;BME280_temperature;BME280_humidity;BME280_pressure;Samples;Min_cycle;Max_cycle;Signal;HPM_P1;HPM_P2
2021/09/17 00:01:34;;;;;;;;;;;;;;;11.94;53.47;100045.53;3526385;28;19977;-77
2021/09/17 00:03:17;;;;;;;;;;;;;;;11.92;53.51;100048.38;3511694;28;19978;-78
2021/09/17 00:04:57;;;;;;;;;;;;;;;11.93;53.56;100043.91;3523657;28;20306;-79
2021/09/17 00:06:38;;;;;;;;;;;;;;;11.94;53.64;100050.88;3527077;28;19923;-75
2021/09/17 00:08:19;;;;;;;;;;;;;;;11.96;53.54;100044.31;3526230;28;19923;-76
2021/09/17 00:09:59;;;;;;;;;;;;;;;11.98;53.64;100046.81;3510716;28;19924;-76
2021/09/17 00:11:40;;;;;;;;;;;;;;;11.97;53.61;100045.16;3522801;28;19969;-76
2021/09/17 00:13:21;;;;;;;;;;;;;;;11.99;53.47;100045.78;3511057;28;19925;-75
2021/09/17 00:15:02;;;;;;;;;;;;;;;12.01;53.61;100046.41;3508230;28;20022;-75
2021/09/17 00:16:43;;;;;;;;;;;;;;;12.03;53.61;100048.88;3508153;28;20406;-75
2021/09/17 00:18:23;;;;;;;;;;;;;;;12.03;53.55;100047.06;3508266;28;20386;-76
2021/09/17 00:20:04;;;;;;;;;;;;;;;12.03;53.66;100049.72;3522606;28;20016;-76
2021/09/17 00:21:45;;;;;;;;;;;;;;;12.02;53.70;100044.56;3525782;28;20301;-76
2021/09/17 00:23:25;;;;;;;;;;;;;;;12.00;53.53;100045.59;3526100;28;19923;-76
2021/09/17 00:25:07;;;;;;;;;;;;;;;12.01;53.63;100038.41;3525812;28;19924;-76
2021/09/17 00:26:49;;;;;;;;;;;;;;;12.01;53.58;100041.06;3510949;28;19924;-76
2021/09/17 00:28:29;;;;;;;;;;;;;;;12.00;53.61;100040.25;3523346;28;19938;-75
2021/09/17 00:30:10;;;;;;;;;;;;;;;12.03;53.54;100041.72;3525294;28;19923;-76
2021/09/17 00:31:50;;;;;;;;;;;;;;;12.03;53.50;100038.19;3525577;28;19924;-76
2021/09/17 00:33:42;;;;;;;;;;;;;;;12.02;53.37;100037.38;3525668;28;19975;-76
2021/09/17 00:35:23;;;;;;;;;;;;;;;12.01;53.42;100035.72;3510637;28;19923;-75
2021/09/17 00:37:04;;;;;;;;;;;;;;;12.01;53.42;100035.72;3522946;28;19930;-75
2021/09/17 00:38:44;;;;;;;;;;;;;;;11.99;53.39;100033.25;3525634;28;20018;-75
2021/09/17 00:40:25;;;;;;;;;;;;;;;11.98;53.51;100041.47;3525275;28;19931;-77
2021/09/17 00:42:05;;;;;;;;;;;;;;;11.94;53.47;100048.22;3510731;28;20356;-77
2021/09/17 00:43:46;;;;;;;;;;;;;;;11.89;53.54;100037.28;3522682;28;19931;-78
2021/09/17 00:45:26;;;;;;;;;;;;;;;11.86;53.64;100037.66;3525623;28;19931;-76
2021/09/17 00:47:07;;;;;;;;;;;;;;;11.85;53.70;100035.97;3510674;28;20019;-79
2021/09/17 00:48:47;;;;;;;;;;;;;;;11.84;53.83;100037.81;3522621;28;19923;-77
2021/09/17 00:50:28;;;;;;;;;;;;;;;11.83;53.81;100044.19;3510445;28;19931;-78
2021/09/17 00:52:09;;;;;;;;;;;;;;;11.81;54.02;100034.72;3522686;28;19923;-77
2021/09/17 00:53:49;;;;;;;;;;;;;;;11.77;54.00;100045.81;3525740;28;20382;-78
2021/09/17 00:55:30;;;;;;;;;;;;;;;11.76;54.17;100036.13;3510577;28;19930;-79
2021/09/17 00:57:11;;;;;;;;;;;;;;;11.76;54.11;100037.97;3507584;28;20330;-74
2021/09/17 00:58:52;;;;;;;;;;;;;;;11.72;54.15;100040.22;3507229;28;19923;-75
2021/09/17 01:00:32;;;;;;;;;;;;;;;11.70;54.18;100042.25;3522323;28;19924;-76
2021/09/17 01:02:13;;;;;;;;;;;;;;;11.69;54.21;100037.91;3518947;28;19924;-76
2021/09/17 01:03:53;;;;;;;;;;;;;;;11.68;54.27;100030.94;3511538;28;20383;-76
2021/09/17 01:05:34;;;;;;;;;;;;;;;11.67;54.41;100034.63;3511282;28;19985;-75
2021/09/17 01:07:15;;;;;;;;;;;;;;;11.68;54.37;100030.09;3511134;28;19931;-75
2021/09/17 01:08:56;;;;;;;;;;;;;;;11.67;54.48;100034.63;3521139;28;20306;-75
2021/09/17 01:10:36;;;;;;;;;;;;;;;11.67;54.42;100039.97;3525306;28;20275;-76
2021/09/17 01:12:17;;;;;;;;;;;;;;;11.65;54.41;100031.31;3525503;28;19923;-76
2021/09/17 01:13:58;;;;;;;;;;;;;;;11.64;54.61;100035.03;3525208;28;20076;-74
2021/09/17 01:15:38;;;;;;;;;;;;;;;11.63;54.63;100036.03;3509873;28;20014;-75
2021/09/17 01:17:19;;;;;;;;;;;;;;;11.65;54.54;100036.66;3522256;28;19928;-75
2021/09/17 01:18:59;;;;;;;;;;;;;;;11.68;54.51;100030.94;3524628;28;19984;-76
2021/09/17 01:20:40;;;;;;;;;;;;;;;11.72;54.50;100032.22;3525076;28;19968;-75
2021/09/17 01:22:20;;;;;;;;;;;;;;;11.76;54.37;100037.97;3525070;28;20314;-75
2021/09/17 01:24:01;;;;;;;;;;;;;;;11.79;54.35;100038.41;3525165;28;19930;-75
2021/09/17 01:25:41;;;;;;;;;;;;;;;11.83;54.31;100038.03;3495981;28;19924;-75
2021/09/17 01:27:22;;;;;;;;;;;;;;;11.83;54.49;100032.69;3519393;28;20348;-75
2021/09/17 01:29:03;;;;;;;;;;;;;;;11.82;54.42;100031.84;3524874;28;19930;-76
2021/09/17 01:30:43;;;;;;;;;;;;;;;11.79;54.42;100030.38;3524810;28;20281;-75
2021/09/17 01:32:24;;;;;;;;;;;;;;;11.78;54.50;100026.09;3525073;28;19934;-77
2021/09/17 01:34:07;;;;;;;;;;;;;;;11.74;54.48;100030.16;3525098;28;19923;-74
2021/09/17 01:36:00;;;;;;;;;;;;;;;11.72;54.52;100029.53;3524652;28;19924;-76
2021/09/17 01:37:41;;;;;;;;;;;;;;;11.73;54.59;100028.50;3524473;28;20005;-75
2021/09/17 01:39:21;;;;;;;;;;;;;;;11.77;54.56;100027.13;3525194;28;19932;-75
2021/09/17 01:41:02;;;;;;;;;;;;;;;11.79;54.53;100027.72;3509095;28;19931;-75
2021/09/17 01:42:43;;;;;;;;;;;;;;;11.80;54.60;100023.22;3521762;28;20002;-75
2021/09/17 01:44:23;;;;;;;;;;;;;;;11.81;54.49;100027.53;3524550;28;19931;-75
2021/09/17 01:46:04;;;;;;;;;;;;;;;11.82;54.54;100023.00;3524787;28;19970;-74
2021/09/17 01:47:44;;;;;;;;;;;;;;;11.83;54.53;100022.00;3524315;28;19977;-75
2021/09/17 01:49:25;;;;;;;;;;;;;;;11.83;54.74;100022.00;3524773;28;19927;-74
2021/09/17 01:51:05;;;;;;;;;;;;;;;11.81;54.67;100018.72;3524591;28;20389;-74
2021/09/17 01:52:46;;;;;;;;;;;;;;;11.81;54.68;100018.72;3524820;28;19927;-74
2021/09/17 01:54:26;;;;;;;;;;;;;;;11.74;54.77;100021.31;3524972;28;20013;-74
2021/09/17 01:56:08;;;;;;;;;;;;;;;11.71;54.76;100011.84;3524819;28;19973;-75
2021/09/17 01:57:48;;;;;;;;;;;;;;;11.72;54.90;100020.69;3524169;28;19928;-74
2021/09/17 01:59:29;;;;;;;;;;;;;;;11.72;54.85;100021.53;3524687;28;20017;-74
2021/09/17 02:01:09;;;;;;;;;;;;;;;11.73;54.70;100017.81;3509689;28;20023;-74
2021/09/17 02:02:53;;;;;;;;;;;;;;;11.75;54.63;100020.31;3521805;28;19923;-74
2021/09/17 02:04:33;;;;;;;;;;;;;;;11.76;54.77;100022.78;3524738;28;19923;-75
2021/09/17 02:06:20;;;;;;;;;;;;;;;11.78;54.62;100026.09;3524881;28;19929;-76
2021/09/17 02:08:01;;;;;;;;;;;;;;;11.81;54.58;100021.38;3524011;28;19955;-75
2021/09/17 02:09:41;;;;;;;;;;;;;;;11.82;54.70;100020.34;3524413;28;19927;-75
2021/09/17 02:11:23;;;;;;;;;;;;;;;11.81;54.64;100024.03;3524437;28;19919;-76
2021/09/17 02:13:04;;;;;;;;;;;;;;;11.80;54.70;100017.88;3524613;28;19977;-75
2021/09/17 02:14:44;;;;;;;;;;;;;;;11.82;54.77;100012.34;3524496;28;20504;-76
2021/09/17 02:16:25;;;;;;;;;;;;;;;11.82;54.63;100021.16;3524284;28;19927;-76
2021/09/17 02:18:05;;;;;;;;;;;;;;;11.83;54.78;100011.34;3524035;28;19931;-76
2021/09/17 02:19:46;;;;;;;;;;;;;;;11.84;54.79;100007.63;3524629;28;19924;-77
2021/09/17 02:21:26;;;;;;;;;;;;;;;11.85;54.87;100014.59;3524364;28;19924;-77
2021/09/17 02:23:08;;;;;;;;;;;;;;;11.86;54.79;100016.28;3509351;28;19924;-77
2021/09/17 02:24:48;;;;;;;;;;;;;;;11.86;54.94;100017.13;3509909;28;20023;-77
2021/09/17 02:26:29;;;;;;;;;;;;;;;11.87;54.95;100012.59;3521972;28;19927;-77
2021/09/17 02:28:09;;;;;;;;;;;;;;;11.87;54.94;100015.28;3524062;28;20283;-77
2021/09/17 02:29:50;;;;;;;;;;;;;;;11.88;54.93;100019.63;3509594;28;19932;-77
2021/09/17 02:31:30;;;;;;;;;;;;;;;11.88;54.98;100016.94;3521457;28;19924;-77
2021/09/17 02:33:11;;;;;;;;;;;;;;;11.89;54.95;100021.25;3524288;28;19924;-77
2021/09/17 02:34:52;;;;;;;;;;;;;;;11.87;55.03;100020.63;3524334;28;20446;-77
2021/09/17 02:36:33;;;;;;;;;;;;;;;11.86;55.17;100022.47;3524357;28;19923;-76
2021/09/17 02:38:15;;;;;;;;;;;;;;;11.84;55.03;100024.47;3523832;28;20388;-75
2021/09/17 02:39:56;;;;;;;;;;;;;;;11.83;55.13;100020.16;3524291;28;19924;-75
2021/09/17 02:41:36;;;;;;;;;;;;;;;11.84;55.04;100020.97;3524206;28;20391;-76
2021/09/17 02:43:17;;;;;;;;;;;;;;;11.85;55.10;100017.28;3524179;28;20031;-75
2021/09/17 02:44:57;;;;;;;;;;;;;;;11.86;55.12;100016.28;3524502;28;20426;-75
2021/09/17 02:46:38;;;;;;;;;;;;;;;11.86;55.07;100021.63;3509007;28;20401;-75
2021/09/17 02:48:18;;;;;;;;;;;;;;;11.85;55.04;100019.94;3520751;28;19994;-75
2021/09/17 02:49:59;;;;;;;;;;;;;;;11.86;55.03;100026.97;3509461;28;19962;-76
2021/09/17 02:51:39;;;;;;;;;;;;;;;11.86;55.04;100019.81;3521039;28;19924;-76
2021/09/17 02:53:20;;;;;;;;;;;;;;;11.87;55.17;100016.09;3523978;28;19924;-76
2021/09/17 02:55:00;;;;;;;;;;;;;;;11.87;55.13;100021.44;3524238;28;20018;-75
2021/09/17 02:56:41;;;;;;;;;;;;;;;11.87;55.03;100020.63;3509503;28;20023;-75
2021/09/17 02:58:23;;;;;;;;;;;;;;;11.87;55.07;100023.28;3509202;28;19924;-74
2021/09/17 03:00:05;;;;;;;;;;;;;;;11.86;55.21;100027.81;3524112;28;19968;-75
2021/09/17 03:01:45;;;;;;;;;;;;;;;11.86;55.11;100025.16;3511840;28;20028;-75
2021/09/17 03:03:26;;;;;;;;;;;;;;;11.85;55.25;100020.81;3524132;28;19928;-75
2021/09/17 03:05:06;;;;;;;;;;;;;;;11.84;55.21;100027.16;3526898;28;19976;-74
2021/09/17 03:06:47;;;;;;;;;;;;;;;11.83;55.18;100027.34;3512024;28;20464;-74
2021/09/17 03:08:27;;;;;;;;;;;;;;;11.82;55.13;100025.69;3523420;28;19924;-78
2021/09/17 03:10:08;;;;;;;;;;;;;;;11.82;55.26;100031.03;3526973;28;19924;-75
2021/09/17 03:11:49;;;;;;;;;;;;;;;11.81;55.24;100027.53;3512234;28;20318;-75
2021/09/17 03:13:29;;;;;;;;;;;;;;;11.80;55.15;100028.56;3509097;28;19924;-77
2021/09/17 03:15:10;;;;;;;;;;;;;;;11.81;55.29;100032.06;3524146;28;19930;-76
2021/09/17 03:16:50;;;;;;;;;;;;;;;11.79;55.34;100025.06;3527116;28;19976;-77
2021/09/17 03:18:32;;;;;;;;;;;;;;;11.78;55.28;100025.25;3527033;28;20018;-77
2021/09/17 03:20:12;;;;;;;;;;;;;;;11.77;55.34;100023.59;3526759;28;19977;-75
2021/09/17 03:21:56;;;;;;;;;;;;;;;11.78;55.25;100033.28;3526917;28;21195;-76
2021/09/17 03:23:37;;;;;;;;;;;;;;;11.78;55.16;100026.09;3527041;28;19930;-76
2021/09/17 03:25:17;;;;;;;;;;;;;;;11.78;55.37;100031.41;3526761;28;19924;-75
2021/09/17 03:26:58;;;;;;;;;;;;;;;11.78;55.21;100031.41;3526587;28;19931;-76
2021/09/17 03:28:40;;;;;;;;;;;;;;;11.76;55.29;100021.97;3525863;28;20298;-76
2021/09/17 03:30:21;;;;;;;;;;;;;;;11.76;55.14;100028.13;3526585;28;19923;-76
2021/09/17 03:32:01;;;;;;;;;;;;;;;11.77;55.33;100029.78;3526525;28;19938;-75
2021/09/17 03:33:43;;;;;;;;;;;;;;;11.79;55.31;100024.22;3526279;28;19930;-75
2021/09/17 03:35:23;;;;;;;;;;;;;;;11.79;55.38;100027.72;3526320;28;20405;-76
2021/09/17 03:37:06;;;;;;;;;;;;;;;11.79;55.44;100026.91;3497514;28;20473;-77
2021/09/17 03:38:46;;;;;;;;;;;;;;;11.78;55.38;100035.94;3520679;28;19924;-75
2021/09/17 03:40:27;;;;;;;;;;;;;;;11.77;55.51;100028.94;3526751;28;19927;-76
2021/09/17 03:42:08;;;;;;;;;;;;;;;11.77;55.52;100026.25;3526568;28;20422;-76
2021/09/17 03:43:48;;;;;;;;;;;;;;;11.75;55.67;100028.31;3526458;28;19984;-79
2021/09/17 03:45:31;;;;;;;;;;;;;;;11.73;55.86;100025.84;3526724;28;19931;-76
2021/09/17 03:47:12;;;;;;;;;;;;;;;11.71;55.87;100027.06;3526598;28;19931;-79
2021/09/17 03:48:53;;;;;;;;;;;;;;;11.67;55.98;100029.28;3526364;28;19930;-77
2021/09/17 03:50:33;;;;;;;;;;;;;;;11.67;55.85;100029.28;3526251;28;19923;-76
2021/09/17 03:52:14;;;;;;;;;;;;;;;11.68;55.95;100024.78;3526635;28;19923;-77
2021/09/17 03:53:54;;;;;;;;;;;;;;;11.67;55.94;100025.78;3526464;28;20032;-77
2021/09/17 03:55:35;;;;;;;;;;;;;;;11.65;56.02;100031.31;3525990;28;19924;-75
2021/09/17 03:57:15;;;;;;;;;;;;;;;11.65;55.92;100034.00;3526047;28;19930;-78
2021/09/17 03:58:56;;;;;;;;;;;;;;;11.68;55.85;100030.09;3506322;28;19924;-76
2021/09/17 04:00:36;;;;;;;;;;;;;;;11.67;55.86;100026.63;3516686;28;19924;-75
2021/09/17 04:02:17;;;;;;;;;;;;;;;11.73;55.88;100028.50;3526135;28;19924;-75
2021/09/17 04:03:57;;;;;;;;;;;;;;;11.73;55.84;100033.84;3526431;28;19955;-76
2021/09/17 04:05:38;;;;;;;;;;;;;;;11.72;55.85;100026.88;3511047;28;20294;-77
2021/09/17 04:07:18;;;;;;;;;;;;;;;11.70;55.88;100028.91;3508219;28;19930;-77
2021/09/17 04:08:59;;;;;;;;;;;;;;;11.71;55.91;100035.88;3507992;28;19924;-78
2021/09/17 04:10:40;;;;;;;;;;;;;;;11.75;55.96;100033.66;3523204;28;19923;-76
2021/09/17 04:12:20;;;;;;;;;;;;;;;11.78;55.84;100043.97;3510881;28;19924;-70
2021/09/17 04:14:01;;;;;;;;;;;;;;;11.81;55.71;100038.22;3522843;28;19930;-71
2021/09/17 04:15:41;;;;;;;;;;;;;;;11.89;55.89;100031.94;3525712;28;19924;-72
2021/09/17 04:17:22;;;;;;;;;;;;;;;11.95;55.64;100041.84;3510588;28;19976;-73
2021/09/17 04:19:02;;;;;;;;;;;;;;;11.99;55.82;100043.09;3522966;28;20494;-72
2021/09/17 04:20:44;;;;;;;;;;;;;;;12.03;55.70;100036.38;3525716;28;19916;-71
2021/09/17 04:22:25;;;;;;;;;;;;;;;12.05;55.70;100034.31;3526115;28;19977;-72
2021/09/17 04:24:05;;;;;;;;;;;;;;;12.06;55.58;100041.31;3525892;28;20051;-72
2021/09/17 04:25:46;;;;;;;;;;;;;;;12.11;55.61;100038.88;3525864;28;20060;-71
2021/09/17 04:27:26;;;;;;;;;;;;;;;12.12;55.52;100042.38;3525230;28;19916;-71
2021/09/17 04:29:07;;;;;;;;;;;;;;;12.12;55.54;100037.84;3525628;28;19959;-72
2021/09/17 04:30:47;;;;;;;;;;;;;;;12.13;55.38;100039.53;3525712;28;19916;-73
2021/09/17 04:32:28;;;;;;;;;;;;;;;12.14;55.49;100035.81;3525491;28;19924;-72
2021/09/17 04:34:08;;;;;;;;;;;;;;;12.18;55.47;100036.22;3525975;28;19923;-77
2021/09/17 04:35:49;;;;;;;;;;;;;;;12.23;55.32;100039.13;3525159;28;19928;-73
2021/09/17 04:37:29;;;;;;;;;;;;;;;12.27;55.30;100042.25;3524857;28;20394;-72
2021/09/17 04:39:10;;;;;;;;;;;;;;;12.30;55.26;100044.53;3525403;28;20017;-73
2021/09/17 04:40:50;;;;;;;;;;;;;;;12.34;55.14;100049.31;3525554;28;19923;-73
2021/09/17 04:42:31;;;;;;;;;;;;;;;12.43;55.00;100049.94;3525603;28;20010;-73
2021/09/17 04:44:12;;;;;;;;;;;;;;;12.54;54.87;100051.25;3525217;28;19970;-73
2021/09/17 04:45:54;;;;;;;;;;;;;;;12.59;54.47;100046.13;3525297;28;20311;-72
2021/09/17 04:47:34;;;;;;;;;;;;;;;12.59;54.28;100051.47;3524743;28;19927;-73
2021/09/17 04:49:15;;;;;;;;;;;;;;;12.58;54.29;100047.97;3525131;28;19973;-72
2021/09/17 04:50:55;;;;;;;;;;;;;;;12.62;54.32;100045.72;3525346;28;20436;-73
2021/09/17 04:52:36;;;;;;;;;;;;;;;12.67;54.16;100048.63;3525199;28;20031;-73
2021/09/17 04:54:17;;;;;;;;;;;;;;;12.72;54.14;100048.84;3525146;28;19977;-73
2021/09/17 04:55:57;;;;;;;;;;;;;;;12.75;53.90;100050.28;3525493;28;19923;-72
2021/09/17 04:57:38;;;;;;;;;;;;;;;12.75;53.69;100047.63;3523853;28;19931;-72
2021/09/17 04:59:18;;;;;;;;;;;;;;;12.76;53.86;100050.09;3511647;28;19963;-71
2021/09/17 05:00:59;;;;;;;;;;;;;;;12.80;53.71;100053.19;3511269;28;20349;-71
2021/09/17 05:02:39;;;;;;;;;;;;;;;12.80;53.68;100058.53;3511074;28;19924;-74
2021/09/17 05:04:20;;;;;;;;;;;;;;;12.81;53.67;100050.34;3511535;28;19931;-79
2021/09/17 05:06:00;;;;;;;;;;;;;;;12.82;53.54;100060.00;3511030;28;20300;-79
2021/09/17 05:07:43;;;;;;;;;;;;;;;12.82;53.48;100056.50;3505996;28;19924;-82
2021/09/17 05:09:33;;;;;;;;;;;;;;;12.85;53.40;100053.41;3508718;28;19924;-75
2021/09/17 05:11:13;;;;;;;;;;;;;;;12.89;53.36;100060.03;3523234;28;20031;-74
2021/09/17 05:12:54;;;;;;;;;;;;;;;12.90;53.38;100061.66;3524934;28;19927;-75
2021/09/17 05:14:34;;;;;;;;;;;;;;;12.89;53.41;100060.03;3525462;28;20352;-72
2021/09/17 05:16:15;;;;;;;;;;;;;;;12.91;53.36;100051.78;3525024;28;19924;-71
2021/09/17 05:17:56;;;;;;;;;;;;;;;12.92;53.36;100046.25;3524867;28;20419;-73
2021/09/17 05:19:36;;;;;;;;;;;;;;;12.94;53.16;100046.88;3524136;28;20518;-72
2021/09/17 05:21:17;;;;;;;;;;;;;;;12.93;52.99;100050.56;3524962;28;19942;-73
2021/09/17 05:22:57;;;;;;;;;;;;;;;12.94;52.99;100041.53;3525224;28;19949;-72
2021/09/17 05:24:38;;;;;;;;;;;;;;;12.97;52.99;100048.31;3509592;28;19923;-72
2021/09/17 05:26:19;;;;;;;;;;;;;;;12.99;52.98;100047.09;3506277;28;19931;-73
2021/09/17 05:27:59;;;;;;;;;;;;;;;13.01;52.91;100050.41;3521264;28;19916;-72
2021/09/17 05:29:40;;;;;;;;;;;;;;;13.01;52.52;100042.38;3524795;28;19963;-71
2021/09/17 05:31:21;;;;;;;;;;;;;;;12.99;52.57;100041.75;3524164;28;19951;-72
2021/09/17 05:33:02;;;;;;;;;;;;;;;13.01;52.54;100042.38;3524545;28;20291;-72
2021/09/17 05:34:42;;;;;;;;;;;;;;;13.04;52.55;100047.31;3524228;28;19924;-72
2021/09/17 05:36:23;;;;;;;;;;;;;;;13.06;52.33;100045.28;3524733;28;20426;-73
2021/09/17 05:38:03;;;;;;;;;;;;;;;13.07;52.18;100046.91;3524458;28;19931;-71
2021/09/17 05:39:44;;;;;;;;;;;;;;;13.06;52.21;100045.28;3523881;28;19924;-71
2021/09/17 05:41:24;;;;;;;;;;;;;;;13.03;52.06;100040.31;3524673;28;20359;-73
2021/09/17 05:43:05;;;;;;;;;;;;;;;13.04;52.08;100041.16;3525043;28;19942;-72
2021/09/17 05:44:45;;;;;;;;;;;;;;;13.08;51.88;100037.03;3524507;28;19930;-72
2021/09/17 05:46:26;;;;;;;;;;;;;;;13.09;51.87;100038.69;3524888;28;19959;-73
2021/09/17 05:48:06;;;;;;;;;;;;;;;13.09;51.73;100034.16;3524364;28;19959;-72
2021/09/17 05:49:47;;;;;;;;;;;;;;;13.08;51.71;100037.84;3523986;28;19924;-71
2021/09/17 05:51:28;;;;;;;;;;;;;;;13.07;51.77;100030.03;3525058;28;20331;-71
2021/09/17 05:53:08;;;;;;;;;;;;;;;13.06;51.84;100031.91;3524492;28;19923;-72
2021/09/17 05:54:49;;;;;;;;;;;;;;;13.04;51.70;100031.28;3524526;28;20228;-72
2021/09/17 05:56:29;;;;;;;;;;;;;;;12.99;51.72;100028.38;3524588;28;19924;-72
2021/09/17 05:58:10;;;;;;;;;;;;;;;12.94;51.63;100028.16;3523447;28;19928;-72
2021/09/17 05:59:51;;;;;;;;;;;;;;;12.87;51.68;100029.97;3523579;28;19928;-73
2021/09/17 06:01:31;;;;;;;;;;;;;;;12.84;51.96;100022.34;3523864;28;19924;-72
2021/09/17 06:03:12;;;;;;;;;;;;;;;12.88;52.01;100027.13;3524075;28;20022;-71
2021/09/17 06:04:53;;;;;;;;;;;;;;;12.92;52.06;100030.19;3523456;28;19934;-72
2021/09/17 06:06:33;;;;;;;;;;;;;;;12.95;51.83;100018.28;3523498;28;19923;-71
2021/09/17 06:08:14;;;;;;;;;;;;;;;12.97;51.89;100019.72;3523376;28;19964;-71
2021/09/17 06:09:54;;;;;;;;;;;;;;;12.98;51.79;100016.00;3523527;28;20436;-72
2021/09/17 06:11:36;;;;;;;;;;;;;;;12.98;51.72;100018.69;3524453;28;19930;-71
2021/09/17 06:13:16;;;;;;;;;;;;;;;12.98;51.89;100026.69;3524110;28;19930;-72
2021/09/17 06:14:57;;;;;;;;;;;;;;;12.95;51.91;100020.94;3524665;28;19924;-72
2021/09/17 06:16:38;;;;;;;;;;;;;;;12.87;51.96;100024.63;3522960;28;19923;-72
2021/09/17 06:18:19;;;;;;;;;;;;;;;12.83;51.84;100023.38;3524016;28;20295;-71
2021/09/17 06:20:00;;;;;;;;;;;;;;;12.82;51.95;100027.06;3523604;28;19992;-71
2021/09/17 06:21:40;;;;;;;;;;;;;;;12.83;51.86;100024.22;3524309;28;19924;-71
2021/09/17 06:23:21;;;;;;;;;;;;;;;12.84;51.72;100033.06;3524392;28;19919;-72
2021/09/17 06:25:01;;;;;;;;;;;;;;;12.85;51.52;100035.50;3524322;28;20060;-72
2021/09/17 06:26:42;;;;;;;;;;;;;;;12.87;51.58;100036.16;3523335;28;20364;-71
2021/09/17 06:28:23;;;;;;;;;;;;;;;12.90;51.15;100034.09;3509069;28;19963;-72
2021/09/17 06:30:05;;;;;;;;;;;;;;;12.87;51.45;100025.44;3520624;28;19920;-72
2021/09/17 06:31:45;;;;;;;;;;;;;;;12.90;51.33;100032.25;3519503;28;19927;-73
2021/09/17 06:33:26;;;;;;;;;;;;;;;12.91;51.28;100033.06;3524300;28;20344;-74
2021/09/17 06:35:07;;;;;;;;;;;;;;;12.92;51.08;100038.22;3522996;28;20286;-72
2021/09/17 06:36:47;;;;;;;;;;;;;;;12.95;51.13;100043.16;3523415;28;19924;-71
2021/09/17 06:38:29;;;;;;;;;;;;;;;13.00;50.86;100039.91;3524100;28;20366;-72
2021/09/17 06:40:10;;;;;;;;;;;;;;;13.01;50.98;100039.72;3509089;28;19931;-73
2021/09/17 06:41:51;;;;;;;;;;;;;;;13.02;50.60;100037.84;3506700;28;19955;-73
2021/09/17 06:43:39;;;;;;;;;;;;;;;12.99;50.62;100033.72;3522327;28;19935;-72
2021/09/17 06:45:19;;;;;;;;;;;;;;;12.98;50.41;100036.59;3524088;28;19924;-71
2021/09/17 06:47:00;;;;;;;;;;;;;;;12.97;50.25;100037.63;3524328;28;20383;-71
2021/09/17 06:48:41;;;;;;;;;;;;;;;12.96;50.27;100039.47;3524074;28;19924;-73
2021/09/17 06:50:23;;;;;;;;;;;;;;;12.96;50.22;100036.81;3524056;28;20056;-72
2021/09/17 06:52:03;;;;;;;;;;;;;;;12.97;50.17;100041.13;3524380;28;20386;-72
2021/09/17 06:53:44;;;;;;;;;;;;;;;12.98;50.04;100040.09;3523833;28;19967;-71
2021/09/17 06:55:25;;;;;;;;;;;;;;;13.01;50.10;100042.38;3524040;28;20306;-72
2021/09/17 06:57:06;;;;;;;;;;;;;;;13.05;49.65;100043.59;3523891;28;19931;-71
2021/09/17 06:58:47;;;;;;;;;;;;;;;13.07;49.48;100043.41;3523555;28;20386;-71
2021/09/17 07:00:28;;;;;;;;;;;;;;;13.08;49.17;100043.19;3524297;28;19932;-71
2021/09/17 07:02:10;;;;;;;;;;;;;;;13.06;48.81;100045.28;3524006;28;20412;-72
2021/09/17 07:03:51;;;;;;;;;;;;;;;13.06;48.87;100044.44;3524025;28;19931;-71
2021/09/17 07:05:32;;;;;;;;;;;;;;;13.12;49.30;100056.19;3523451;28;19924;-72
2021/09/17 07:07:13;;;;;;;;;;;;;;;13.22;48.23;100051.28;3518673;28;19969;-71
2021/09/17 07:08:55;;;;;;;;;;;;;;;13.25;48.40;100058.91;3517957;28;19924;-74
2021/09/17 07:10:38;;;;;;;;;;;;;;;13.21;47.81;100053.09;3509597;28;20010;-73
2021/09/17 07:12:19;;;;;;;;;;;;;;;13.19;47.84;100057.88;3494619;28;19971;-72
2021/09/17 07:14:02;;;;;;;;;;;;;;;13.17;47.68;100051.06;3493702;28;20378;-71
2021/09/17 07:15:43;;;;;;;;;;;;;;;13.13;47.12;100049.81;3513134;28;19968;-72
2021/09/17 07:17:23;;;;;;;;;;;;;;;13.09;47.10;100055.56;3517984;28;20026;-71
2021/09/17 07:19:04;;;;;;;;;;;;;;;13.08;47.22;100053.91;3517761;28;19924;-71
2021/09/17 07:20:46;;;;;;;;;;;;;;;13.08;46.96;100045.88;3517597;28;19924;-72
2021/09/17 07:22:27;;;;;;;;;;;;;;;13.08;47.04;100053.09;3515673;28;19923;-72
2021/09/17 07:24:07;;;;;;;;;;;;;;;13.09;46.67;100047.53;3505950;28;19935;-72
2021/09/17 07:25:49;;;;;;;;;;;;;;;13.11;46.69;100036.63;3517108;28;20806;-72
2021/09/17 07:27:30;;;;;;;;;;;;;;;13.13;46.70;100041.78;3522762;28;19924;-72
2021/09/17 07:29:10;;;;;;;;;;;;;;;13.13;46.36;100041.78;3509887;28;19924;-71
2021/09/17 07:30:51;;;;;;;;;;;;;;;13.12;45.95;100038.28;3520881;28;19924;-72
2021/09/17 07:32:32;;;;;;;;;;;;;;;13.14;46.22;100043.41;3513728;28;19928;-71
2021/09/17 07:34:14;;;;;;;;;;;;;;;13.18;45.89;100044.66;3522437;28;19924;-70
2021/09/17 07:35:55;;;;;;;;;;;;;;;13.18;46.15;100042.00;3505533;28;20405;-72
2021/09/17 07:37:35;;;;;;;;;;;;;;;13.23;46.00;100047.56;3513048;28;20106;-72
2021/09/17 07:39:16;;;;;;;;;;;;;;;13.24;45.92;100046.53;3518082;28;19920;-72
2021/09/17 07:40:56;;;;;;;;;;;;;;;13.25;45.88;100048.19;3519227;28;19924;-73
2021/09/17 07:42:37;;;;;;;;;;;;;;;13.27;45.78;100040.81;3516548;28;19963;-73
2021/09/17 07:44:18;;;;;;;;;;;;;;;13.30;45.81;100053.78;3523099;28;19924;-76
2021/09/17 07:45:59;;;;;;;;;;;;;;;13.30;45.45;100051.94;3524231;28;19923;-72
2021/09/17 07:47:40;;;;;;;;;;;;;;;13.30;45.35;100056.47;3512796;28;20307;-72
2021/09/17 07:49:21;;;;;;;;;;;;;;;13.28;45.08;100063.88;3512838;28;20599;-71
2021/09/17 07:51:02;;;;;;;;;;;;;;;13.23;45.12;100050.25;3513335;28;19931;-73
2021/09/17 07:52:44;;;;;;;;;;;;;;;13.22;45.37;100064.66;3523589;28;19980;-71
2021/09/17 07:54:24;;;;;;;;;;;;;;;13.24;45.49;100057.22;3525588;28;19959;-71
2021/09/17 07:56:06;;;;;;;;;;;;;;;13.28;45.42;100066.56;3522623;28;19923;-71
2021/09/17 07:57:47;;;;;;;;;;;;;;;13.31;45.27;100063.47;3512038;28;20276;-73
2021/09/17 07:59:28;;;;;;;;;;;;;;;13.34;45.27;100060.38;3507404;28;19931;-72
2021/09/17 08:01:08;;;;;;;;;;;;;;;13.34;45.20;100060.38;3518830;28;19951;-72
2021/09/17 08:02:51;;;;;;;;;;;;;;;13.32;44.77;100062.47;3523140;28;19924;-72
2021/09/17 08:04:32;;;;;;;;;;;;;;;13.30;45.02;100070.69;3508295;28;19963;-72
2021/09/17 08:06:14;;;;;;;;;;;;;;;13.26;44.73;100071.25;3515160;28;19924;-71
2021/09/17 08:07:55;;;;;;;;;;;;;;;13.24;45.08;100073.28;3516901;28;19924;-72
2021/09/17 08:09:36;;;;;;;;;;;;;;;13.24;44.89;100065.25;3512308;28;20452;-71
2021/09/17 08:11:18;;;;;;;;;;;;;;;13.25;45.14;100069.59;3515209;28;20016;-72
2021/09/17 08:12:59;;;;;;;;;;;;;;;13.27;44.65;100064.91;3513030;28;19928;-71
2021/09/17 08:14:40;;;;;;;;;;;;;;;13.24;44.68;100063.44;3518837;28;19927;-73
2021/09/17 08:16:21;;;;;;;;;;;;;;;13.22;44.96;100060.13;3514651;28;19963;-70
2021/09/17 08:18:02;;;;;;;;;;;;;;;13.23;44.84;100058.28;3512550;28;19924;-71
2021/09/17 08:19:42;;;;;;;;;;;;;;;13.23;45.00;100068.97;3516163;28;20448;-72
2021/09/17 08:21:23;;;;;;;;;;;;;;;13.22;44.67;100062.00;3517827;28;19932;-72
2021/09/17 08:23:03;;;;;;;;;;;;;;;13.19;44.26;100059.69;3503196;28;19924;-71
2021/09/17 08:24:44;;;;;;;;;;;;;;;13.15;44.36;100066.50;3517230;28;19919;-72
2021/09/17 08:26:24;;;;;;;;;;;;;;;13.12;44.74;100067.72;3512176;28;20065;-70
2021/09/17 08:28:05;;;;;;;;;;;;;;;13.10;44.72;100065.22;3515177;28;19928;-71
2021/09/17 08:29:45;;;;;;;;;;;;;;;13.09;44.72;100068.94;3512248;28;19924;-72
2021/09/17 08:31:49;;;;;;;;;;;;;;;13.09;44.58;100066.28;3507766;28;19964;-74
2021/09/17 08:33:49;;;;;;;;;;;;;;;13.14;44.42;100064.81;3498715;28;19980;-71
2021/09/17 08:35:50;;;;;;;;;;;;;;;13.09;44.27;100062.78;3496080;28;20423;-72
2021/09/17 08:37:51;;;;;;;;;;;;;;;13.07;44.17;100062.97;3501670;28;19978;-79
2021/09/17 08:39:41;;;;;;;;;;;;;;;13.05;44.13;100059.66;3502062;28;19979;-72